createdAt,value
2018-12-06T00:00:40.419Z,21.60
2018-12-06T00:01:40.420Z,21.60
2018-12-06T00:02:40.394Z,21.90
2018-12-06T00:03:40.408Z,21.20
2018-12-06T00:04:40.384Z,20.60
2018-12-06T00:05:40.369Z,22.20
2018-12-06T00:06:40.361Z,21.50
2018-12-06T00:07:40.355Z,20.90
2018-12-06T00:08:40.354Z,21.80
2018-12-06T00:09:40.323Z,21.40
2018-12-06T00:11:49.582Z,18.80
2018-12-06T00:12:50.498Z,20.60
2018-12-06T00:13:50.508Z,20.70
2018-12-06T00:14:50.481Z,21.00
2018-12-06T00:15:50.466Z,20.80
2018-12-06T00:16:50.462Z,21.80
2018-12-06T00:17:50.435Z,20.90
2018-12-06T00:18:50.445Z,20.70
2018-12-06T00:19:50.415Z,21.30
2018-12-06T00:20:50.408Z,21.90
2018-12-06T00:21:50.390Z,22.70
2018-12-06T00:22:50.389Z,21.10
2018-12-06T00:23:50.399Z,22.00
2018-12-06T00:24:50.366Z,21.20
2018-12-06T00:25:50.355Z,21.20
2018-12-06T00:26:50.343Z,21.10
2018-12-06T00:27:50.323Z,21.20
2018-12-06T00:28:50.341Z,21.10
2018-12-06T00:29:50.305Z,20.90
2018-12-06T00:30:50.290Z,22.40
2018-12-06T00:31:50.282Z,21.80
2018-12-06T00:32:50.266Z,20.70
2018-12-06T00:33:50.275Z,20.70
2018-12-06T00:34:50.260Z,23.60
2018-12-06T00:35:50.230Z,20.70
2018-12-06T00:36:50.227Z,21.50
2018-12-06T00:37:50.210Z,20.60
2018-12-06T00:38:50.219Z,21.00
2018-12-06T00:39:50.188Z,22.50
2018-12-06T00:40:50.174Z,21.40
2018-12-06T00:41:50.161Z,21.30
2018-12-06T00:42:50.168Z,21.60
2018-12-06T00:43:50.165Z,21.60
2018-12-06T00:44:50.145Z,21.50
2018-12-06T00:45:50.117Z,22.20
2018-12-06T00:46:50.120Z,22.50
2018-12-06T00:47:50.101Z,22.40
2018-12-06T00:48:50.113Z,22.60
2018-12-06T00:49:50.104Z,24.20
2018-12-06T00:50:50.068Z,22.60
2018-12-06T00:51:50.054Z,22.20
2018-12-06T00:52:50.040Z,22.90
2018-12-06T00:53:50.030Z,22.80
2018-12-06T00:54:50.021Z,22.50
2018-12-06T00:55:50.754Z,23.00
2018-12-06T00:56:50.009Z,23.60
2018-12-06T00:57:49.998Z,23.20
2018-12-06T00:58:49.986Z,25.00
2018-12-06T00:59:49.992Z,21.80
2018-12-06T01:00:49.965Z,22.60
2018-12-06T01:01:49.945Z,23.30
2018-12-06T01:02:49.934Z,22.40
2018-12-06T01:03:49.932Z,23.80
2018-12-06T01:04:49.938Z,23.30
2018-12-06T01:05:49.905Z,21.90
2018-12-06T01:06:49.893Z,23.20
2018-12-06T01:07:49.882Z,22.50
2018-12-06T01:08:49.879Z,24.70
2018-12-06T01:09:50.730Z,23.40
2018-12-06T01:10:49.850Z,24.10
2018-12-06T01:11:49.840Z,24.40
2018-12-06T01:12:49.824Z,24.80
2018-12-06T01:13:49.816Z,24.50
2018-12-06T01:14:49.830Z,24.10
2018-12-06T01:15:49.796Z,25.30
2018-12-06T01:16:49.773Z,22.70
2018-12-06T01:17:49.774Z,24.00
2018-12-06T01:18:49.774Z,23.20
2018-12-06T01:19:49.766Z,23.10
2018-12-06T01:20:49.741Z,22.30
2018-12-06T01:21:49.729Z,25.30
2018-12-06T01:22:49.709Z,23.10
2018-12-06T01:23:49.706Z,22.40
2018-12-06T01:24:49.758Z,23.90
2018-12-06T01:25:49.684Z,24.10
2018-12-06T01:26:49.676Z,25.10
2018-12-06T01:27:49.682Z,24.70
2018-12-06T01:28:49.646Z,24.10
2018-12-06T01:29:49.656Z,24.30
2018-12-06T01:30:49.630Z,24.60
2018-12-06T01:31:49.616Z,25.70
2018-12-06T01:32:49.602Z,27.70
2018-12-06T01:33:49.604Z,26.00
2018-12-06T01:34:49.596Z,27.70
2018-12-06T01:35:49.581Z,25.70
2018-12-06T01:36:49.564Z,25.30
2018-12-06T01:37:49.548Z,26.20
2018-12-06T01:38:49.538Z,25.60
2018-12-06T01:39:49.568Z,26.20
2018-12-06T01:40:49.526Z,28.50
2018-12-06T01:41:49.515Z,27.50
2018-12-06T01:42:49.500Z,26.00
2018-12-06T01:43:49.483Z,30.00
2018-12-06T01:44:49.503Z,26.80
2018-12-06T01:45:49.470Z,28.30
2018-12-06T01:46:49.455Z,31.10
2018-12-06T01:47:49.445Z,31.00
2018-12-06T01:48:49.432Z,29.60
2018-12-06T01:49:49.443Z,30.10
2018-12-06T01:50:49.413Z,32.80
2018-12-06T01:51:49.403Z,32.90
2018-12-06T01:52:49.381Z,31.60
2018-12-06T01:53:49.373Z,32.00
2018-12-06T01:54:49.383Z,33.10
2018-12-06T01:55:49.364Z,32.50
2018-12-06T01:56:49.339Z,31.60
2018-12-06T01:57:49.352Z,32.60
2018-12-06T01:58:49.330Z,34.70
2018-12-06T01:59:49.313Z,31.50
2018-12-06T02:00:49.308Z,35.00
2018-12-06T02:01:49.278Z,34.40
2018-12-06T02:02:49.270Z,34.60
2018-12-06T02:03:49.260Z,34.80
2018-12-06T02:04:49.269Z,33.90
2018-12-06T02:05:49.257Z,33.50
2018-12-06T02:06:49.223Z,34.00
2018-12-06T02:07:49.231Z,34.10
2018-12-06T02:08:49.200Z,32.20
2018-12-06T02:09:49.229Z,34.30
2018-12-06T02:10:49.194Z,34.30
2018-12-06T02:12:58.371Z,36.20
2018-12-06T02:13:59.355Z,32.50
2018-12-06T02:14:59.381Z,34.10
2018-12-06T02:15:59.332Z,31.70
2018-12-06T02:16:59.316Z,32.70
2018-12-06T02:17:59.305Z,31.80
2018-12-06T02:18:59.307Z,37.20
2018-12-06T02:19:59.390Z,33.50
2018-12-06T02:20:59.281Z,32.90
2018-12-06T02:21:59.273Z,34.00
2018-12-06T02:22:59.276Z,36.30
2018-12-06T02:23:59.246Z,31.80
2018-12-06T02:24:59.254Z,33.60
2018-12-06T02:25:59.220Z,32.40
2018-12-06T02:26:59.212Z,32.90
2018-12-06T02:27:59.201Z,32.30
2018-12-06T02:28:59.185Z,33.70
2018-12-06T02:29:59.203Z,34.10
2018-12-06T02:30:59.177Z,36.00
2018-12-06T02:31:59.163Z,36.30
2018-12-06T02:32:59.145Z,31.90
2018-12-06T02:33:59.145Z,32.20
2018-12-06T02:34:59.154Z,33.40
2018-12-06T02:35:59.106Z,35.10
2018-12-06T02:36:59.112Z,34.10
2018-12-06T02:37:59.084Z,33.30
2018-12-06T02:38:59.073Z,32.60
2018-12-06T02:39:59.092Z,35.30
2018-12-06T02:40:59.061Z,32.90
2018-12-06T02:41:59.046Z,34.80
2018-12-06T02:42:59.615Z,33.90
2018-12-06T02:43:59.036Z,33.90
2018-12-06T02:44:59.014Z,30.40
2018-12-06T02:45:59.007Z,32.90
2018-12-06T02:46:59.018Z,33.30
2018-12-06T02:47:58.982Z,32.50
2018-12-06T02:48:58.969Z,34.90
2018-12-06T02:49:58.975Z,35.00
2018-12-06T02:50:58.981Z,35.60
2018-12-06T02:51:58.937Z,34.40
2018-12-06T02:52:58.917Z,34.70
2018-12-06T02:53:58.914Z,34.70
2018-12-06T02:54:58.965Z,32.30
2018-12-06T02:55:58.927Z,33.30
2018-12-06T02:56:58.890Z,31.30
2018-12-06T02:57:58.877Z,31.60
2018-12-06T02:58:58.858Z,32.30
2018-12-06T02:59:58.845Z,31.30
2018-12-06T03:00:58.871Z,31.70
2018-12-06T03:01:58.827Z,33.10
2018-12-06T03:02:58.829Z,33.40
2018-12-06T03:03:58.808Z,34.90
2018-12-06T03:04:58.803Z,31.90
2018-12-06T03:05:58.807Z,32.60
2018-12-06T03:06:58.783Z,32.50
2018-12-06T03:07:58.770Z,30.80
2018-12-06T03:08:58.763Z,30.00
2018-12-06T03:09:58.745Z,31.70
2018-12-06T03:10:58.757Z,32.60
2018-12-06T03:11:58.735Z,29.10
2018-12-06T03:12:58.708Z,32.20
2018-12-06T03:13:58.712Z,31.10
2018-12-06T03:14:58.694Z,32.50
2018-12-06T03:15:58.701Z,31.30
2018-12-06T03:16:58.683Z,33.60
2018-12-06T03:17:58.661Z,33.10
2018-12-06T03:18:58.648Z,33.30
2018-12-06T03:19:58.637Z,34.00
2018-12-06T03:20:58.656Z,31.30
2018-12-06T03:21:58.623Z,31.80
2018-12-06T03:22:58.597Z,32.40
2018-12-06T03:23:58.597Z,33.80
2018-12-06T03:24:58.590Z,29.90
2018-12-06T03:25:58.594Z,31.70
2018-12-06T03:26:58.581Z,30.90
2018-12-06T03:27:58.560Z,29.50
2018-12-06T03:28:58.543Z,31.00
2018-12-06T03:29:58.543Z,31.20
2018-12-06T03:30:58.525Z,31.60
2018-12-06T03:31:58.525Z,29.00
2018-12-06T03:32:58.488Z,31.40
2018-12-06T03:33:58.485Z,31.10
2018-12-06T03:34:58.484Z,32.90
2018-12-06T03:35:58.460Z,30.10
2018-12-06T03:36:58.470Z,32.00
2018-12-06T03:37:58.440Z,30.40
2018-12-06T03:38:58.422Z,32.90
2018-12-06T03:39:58.421Z,30.20
2018-12-06T03:40:58.405Z,30.00
2018-12-06T03:41:58.414Z,32.10
2018-12-06T03:42:58.398Z,29.40
2018-12-06T03:43:58.377Z,28.80
2018-12-06T03:44:58.379Z,28.10
2018-12-06T03:45:58.356Z,28.50
2018-12-06T03:46:58.358Z,26.70
2018-12-06T03:47:58.337Z,29.10
2018-12-06T03:48:58.316Z,30.80
2018-12-06T03:49:58.320Z,28.60
2018-12-06T03:50:58.306Z,28.10
2018-12-06T03:51:58.312Z,28.20
2018-12-06T03:52:58.285Z,28.20
2018-12-06T03:53:58.270Z,29.90
2018-12-06T03:54:58.263Z,28.80
2018-12-06T03:55:58.237Z,27.50
2018-12-06T03:56:58.257Z,31.20
2018-12-06T03:57:58.223Z,26.90
2018-12-06T03:58:58.216Z,25.00
2018-12-06T03:59:58.202Z,28.00
2018-12-06T04:00:58.196Z,26.00
2018-12-06T04:01:58.197Z,25.80
2018-12-06T04:02:58.173Z,27.80
2018-12-06T04:03:58.171Z,28.10
2018-12-06T04:04:58.163Z,25.80
2018-12-06T04:05:58.140Z,27.90
2018-12-06T04:06:58.151Z,29.30
2018-12-06T04:07:58.110Z,28.10
2018-12-06T04:08:58.229Z,28.10
2018-12-06T04:09:58.093Z,26.70
2018-12-06T04:10:58.096Z,27.90
2018-12-06T04:11:58.106Z,28.20
2018-12-06T04:14:07.243Z,24.70
2018-12-06T04:15:08.295Z,28.00
2018-12-06T04:16:08.217Z,27.60
2018-12-06T04:17:08.246Z,28.70
2018-12-06T04:18:08.199Z,25.90
2018-12-06T04:19:08.199Z,26.90
2018-12-06T04:20:08.179Z,27.50
2018-12-06T04:21:08.178Z,25.40
2018-12-06T04:22:08.183Z,27.00
2018-12-06T04:23:08.148Z,27.90
2018-12-06T04:24:08.138Z,31.40
2018-12-06T04:25:08.135Z,30.60
2018-12-06T04:26:08.116Z,29.30
2018-12-06T04:27:08.131Z,27.20
2018-12-06T04:28:08.106Z,29.80
2018-12-06T04:29:08.086Z,31.00
2018-12-06T04:30:08.994Z,29.90
2018-12-06T04:31:08.074Z,29.30
2018-12-06T04:32:08.064Z,30.40
2018-12-06T04:33:08.037Z,31.80
2018-12-06T04:34:08.046Z,29.30
2018-12-06T04:35:08.033Z,29.80
2018-12-06T04:36:08.011Z,30.40
2018-12-06T04:37:07.993Z,32.10
2018-12-06T04:38:08.020Z,31.20
2018-12-06T04:39:07.978Z,28.90
2018-12-06T04:40:07.969Z,30.10
2018-12-06T04:41:07.954Z,29.60
2018-12-06T04:42:07.942Z,31.80
2018-12-06T04:43:07.960Z,29.30
2018-12-06T04:44:07.915Z,30.80
2018-12-06T04:45:07.910Z,32.50
2018-12-06T04:46:07.891Z,28.40
2018-12-06T04:47:07.883Z,32.40
2018-12-06T04:48:07.906Z,30.00
2018-12-06T04:49:07.881Z,31.40
2018-12-06T04:50:07.858Z,31.90
2018-12-06T04:51:07.866Z,31.30
2018-12-06T04:52:07.833Z,29.90
2018-12-06T04:53:07.844Z,34.00
2018-12-06T04:54:07.831Z,32.70
2018-12-06T04:55:07.799Z,33.00
2018-12-06T04:56:07.796Z,34.50
2018-12-06T04:57:07.782Z,32.10
2018-12-06T04:58:07.779Z,34.40
2018-12-06T04:59:07.758Z,34.50
2018-12-06T05:00:07.740Z,32.30
2018-12-06T05:01:07.734Z,34.20
2018-12-06T05:02:07.727Z,34.00
2018-12-06T05:03:07.714Z,33.60
2018-12-06T05:04:07.747Z,31.30
2018-12-06T05:05:07.694Z,33.00
2018-12-06T05:06:07.687Z,31.20
2018-12-06T05:07:07.664Z,32.90
2018-12-06T05:08:07.655Z,31.80
2018-12-06T05:09:07.671Z,29.30
2018-12-06T05:10:07.628Z,30.60
2018-12-06T05:11:07.619Z,28.90
2018-12-06T05:12:07.613Z,30.00
2018-12-06T05:13:07.619Z,30.10
2018-12-06T05:14:07.615Z,29.10
2018-12-06T05:15:07.587Z,28.50
2018-12-06T05:16:07.575Z,31.00
2018-12-06T05:17:07.558Z,30.60
2018-12-06T05:18:07.550Z,29.50
2018-12-06T05:19:07.554Z,27.20
2018-12-06T05:20:07.530Z,29.50
2018-12-06T05:21:07.511Z,31.20
2018-12-06T05:22:07.511Z,29.30
2018-12-06T05:23:07.489Z,31.40
2018-12-06T05:24:07.500Z,29.50
2018-12-06T05:25:07.485Z,30.40
2018-12-06T05:26:07.448Z,29.30
2018-12-06T05:27:07.450Z,30.70
2018-12-06T05:28:07.435Z,30.20
2018-12-06T05:29:07.438Z,29.20
2018-12-06T05:30:08.486Z,30.00
2018-12-06T05:31:07.407Z,30.40
2018-12-06T05:32:07.386Z,30.70
2018-12-06T05:33:07.377Z,29.80
2018-12-06T05:34:07.385Z,30.10
2018-12-06T05:35:07.370Z,31.40
2018-12-06T05:36:07.337Z,27.40
2018-12-06T05:37:07.331Z,29.50
2018-12-06T05:38:07.320Z,24.50
2018-12-06T05:39:07.326Z,27.20
2018-12-06T05:40:07.306Z,28.30
2018-12-06T05:41:07.291Z,28.80
2018-12-06T05:42:07.285Z,26.60
2018-12-06T05:43:07.277Z,26.70
2018-12-06T05:44:07.277Z,29.60
2018-12-06T05:45:07.245Z,29.70
2018-12-06T05:46:07.242Z,29.60
2018-12-06T05:47:07.225Z,29.10
2018-12-06T05:48:07.218Z,29.20
2018-12-06T05:49:07.216Z,27.10
2018-12-06T05:50:07.194Z,26.20
2018-12-06T05:51:07.194Z,29.00
2018-12-06T05:52:07.173Z,26.40
2018-12-06T05:53:07.162Z,29.20
2018-12-06T05:54:07.178Z,27.90
2018-12-06T05:55:07.141Z,28.00
2018-12-06T05:56:07.123Z,29.20
2018-12-06T05:57:07.129Z,27.00
2018-12-06T05:58:07.117Z,28.80
2018-12-06T05:59:07.112Z,28.70
2018-12-06T06:00:07.083Z,27.30
2018-12-06T06:01:07.075Z,27.00
2018-12-06T06:02:07.059Z,27.00
2018-12-06T06:03:07.052Z,28.40
2018-12-06T06:04:07.044Z,28.30
2018-12-06T06:05:07.031Z,28.40
2018-12-06T06:06:07.023Z,29.40
2018-12-06T06:07:07.007Z,27.30
2018-12-06T06:08:07.004Z,27.20
2018-12-06T06:09:06.985Z,27.10
2018-12-06T06:10:07.001Z,27.00
2018-12-06T06:11:06.969Z,30.50
2018-12-06T06:12:06.941Z,27.80
2018-12-06T06:13:06.942Z,30.40
2018-12-06T06:15:16.151Z,23.00
2018-12-06T06:16:17.104Z,31.20
2018-12-06T06:17:17.851Z,32.00
2018-12-06T06:18:17.084Z,33.20
2018-12-06T06:19:17.083Z,33.20
2018-12-06T06:20:17.088Z,29.90
2018-12-06T06:21:17.059Z,33.10
2018-12-06T06:22:17.048Z,34.90
2018-12-06T06:23:17.028Z,34.50
2018-12-06T06:24:17.017Z,31.90
2018-12-06T06:25:17.013Z,36.90
2018-12-06T06:26:17.008Z,33.80
2018-12-06T06:27:16.987Z,35.80
2018-12-06T06:28:16.983Z,37.60
2018-12-06T06:29:16.965Z,36.70
2018-12-06T06:30:16.960Z,39.10
2018-12-06T06:31:16.987Z,34.20
2018-12-06T06:32:16.928Z,35.80
2018-12-06T06:33:16.929Z,34.10
2018-12-06T06:34:16.920Z,35.30
2018-12-06T06:35:16.898Z,39.80
2018-12-06T06:36:16.917Z,33.80
2018-12-06T06:37:16.888Z,35.20
2018-12-06T06:38:16.873Z,35.60
2018-12-06T06:39:16.871Z,39.10
2018-12-06T06:40:16.841Z,35.80
2018-12-06T06:41:16.858Z,36.00
2018-12-06T06:42:16.833Z,37.70
2018-12-06T06:43:16.823Z,38.50
2018-12-06T06:44:16.809Z,35.80
2018-12-06T06:45:16.787Z,39.70
2018-12-06T06:46:16.811Z,39.20
2018-12-06T06:47:16.770Z,39.10
2018-12-06T06:48:16.759Z,39.50
2018-12-06T06:49:17.378Z,39.60
2018-12-06T06:50:16.745Z,43.00
2018-12-06T06:51:16.757Z,41.00
2018-12-06T06:52:16.725Z,39.60
2018-12-06T06:53:16.714Z,41.40
2018-12-06T06:54:16.726Z,38.00
2018-12-06T06:55:16.685Z,39.90
2018-12-06T06:56:16.697Z,39.10
2018-12-06T06:57:16.686Z,42.10
2018-12-06T06:58:16.675Z,37.30
2018-12-06T06:59:16.647Z,40.80
2018-12-06T07:00:16.641Z,40.40
2018-12-06T07:01:16.683Z,39.40
2018-12-06T07:02:16.629Z,38.30
2018-12-06T07:03:16.612Z,38.00
2018-12-06T07:04:16.637Z,40.50
2018-12-06T07:05:16.594Z,40.30
2018-12-06T07:06:16.591Z,37.20
2018-12-06T07:07:16.615Z,33.60
2018-12-06T07:08:16.572Z,42.50
2018-12-06T07:09:16.555Z,41.80
2018-12-06T07:10:16.523Z,39.80
2018-12-06T07:11:16.537Z,37.50
2018-12-06T07:12:16.594Z,40.70
2018-12-06T07:13:16.499Z,39.40
2018-12-06T07:14:16.481Z,36.40
2018-12-06T07:15:16.474Z,39.80
2018-12-06T07:16:16.475Z,37.10
2018-12-06T07:17:16.879Z,38.90
2018-12-06T07:18:16.573Z,40.00
2018-12-06T07:19:16.492Z,37.90
2018-12-06T07:20:16.418Z,41.50
2018-12-06T07:21:16.436Z,39.40
2018-12-06T07:22:16.430Z,38.30
2018-12-06T07:23:16.423Z,38.60
2018-12-06T07:24:16.371Z,40.10
2018-12-06T07:25:16.360Z,41.70
2018-12-06T07:26:16.384Z,38.20
2018-12-06T07:27:16.350Z,40.60
2018-12-06T07:28:16.344Z,37.40
2018-12-06T07:29:16.321Z,39.00
2018-12-06T07:30:16.311Z,36.30
2018-12-06T07:31:16.325Z,35.60
2018-12-06T07:32:16.291Z,39.20
2018-12-06T07:33:16.276Z,40.90
2018-12-06T07:34:16.269Z,35.70
2018-12-06T07:35:16.260Z,37.70
2018-12-06T07:36:16.366Z,35.10
2018-12-06T07:37:16.242Z,37.90
2018-12-06T07:38:16.223Z,35.00
2018-12-06T07:39:16.210Z,37.70
2018-12-06T07:40:16.198Z,36.70
2018-12-06T07:41:16.209Z,40.20
2018-12-06T07:42:16.187Z,38.70
2018-12-06T07:43:16.176Z,36.10
2018-12-06T07:44:16.182Z,35.60
2018-12-06T07:45:16.158Z,37.40
2018-12-06T07:46:16.175Z,36.00
2018-12-06T07:47:16.208Z,35.00
2018-12-06T07:48:16.112Z,35.40
2018-12-06T07:49:16.110Z,36.30
2018-12-06T07:50:16.137Z,33.30
2018-12-06T07:51:17.021Z,35.90
2018-12-06T07:52:16.078Z,33.80
2018-12-06T07:53:16.059Z,36.20
2018-12-06T07:54:16.051Z,33.30
2018-12-06T07:55:16.037Z,35.10
2018-12-06T07:56:16.021Z,34.90
2018-12-06T07:57:16.384Z,33.80
2018-12-06T07:58:16.013Z,35.80
2018-12-06T07:59:15.998Z,35.80
2018-12-06T08:00:15.985Z,35.50
2018-12-06T08:01:15.972Z,35.70
2018-12-06T08:02:16.019Z,34.20
2018-12-06T08:03:15.957Z,32.40
2018-12-06T08:04:15.955Z,34.00
2018-12-06T08:05:15.926Z,33.00
2018-12-06T08:06:15.967Z,34.00
2018-12-06T08:07:15.943Z,34.20
2018-12-06T08:08:15.905Z,34.30
2018-12-06T08:09:15.894Z,39.80
2018-12-06T08:10:15.886Z,37.50
2018-12-06T08:11:15.875Z,37.90
2018-12-06T08:12:15.890Z,35.60
2018-12-06T08:13:15.849Z,35.80
2018-12-06T08:14:15.855Z,37.90
2018-12-06T08:16:25.016Z,32.10
2018-12-06T08:17:26.026Z,35.40
2018-12-06T08:18:25.989Z,34.90
2018-12-06T08:19:25.984Z,36.00
2018-12-06T08:20:25.979Z,37.40
2018-12-06T08:21:25.966Z,40.00
2018-12-06T08:22:25.977Z,39.30
2018-12-06T08:23:26.046Z,38.60
2018-12-06T08:24:25.969Z,39.50
2018-12-06T08:25:25.923Z,37.20
2018-12-06T08:26:25.909Z,35.30
2018-12-06T08:27:25.946Z,38.10
2018-12-06T08:28:25.881Z,35.20
2018-12-06T08:29:25.868Z,37.50
2018-12-06T08:30:25.869Z,40.00
2018-12-06T08:31:25.857Z,36.10
2018-12-06T08:32:25.888Z,35.80
2018-12-06T08:33:25.851Z,34.00
2018-12-06T08:34:25.860Z,39.70
2018-12-06T08:35:25.824Z,38.80
2018-12-06T08:36:25.792Z,38.50
2018-12-06T08:37:25.822Z,38.20
2018-12-06T08:38:25.792Z,38.90
2018-12-06T08:39:25.774Z,41.70
2018-12-06T08:40:25.764Z,38.90
2018-12-06T08:41:26.925Z,38.40
2018-12-06T08:42:25.746Z,37.70
2018-12-06T08:43:25.848Z,37.70
2018-12-06T08:44:25.877Z,37.40
2018-12-06T08:45:25.695Z,38.30
2018-12-06T08:46:25.682Z,41.70
2018-12-06T08:47:25.705Z,40.60
2018-12-06T08:48:25.686Z,40.10
2018-12-06T08:49:25.683Z,39.70
2018-12-06T08:50:25.643Z,44.60
2018-12-06T08:51:25.662Z,39.20
2018-12-06T08:52:25.666Z,41.20
2018-12-06T08:53:25.624Z,41.60
2018-12-06T08:54:25.706Z,40.70
2018-12-06T08:55:25.624Z,38.40
2018-12-06T08:56:25.742Z,38.60
2018-12-06T08:57:25.596Z,35.90
2018-12-06T08:58:25.564Z,34.40
2018-12-06T08:59:25.546Z,36.00
2018-12-06T09:00:25.542Z,37.90
2018-12-06T09:01:25.528Z,36.50
2018-12-06T09:02:25.544Z,34.90
2018-12-06T09:03:25.512Z,36.20
2018-12-06T09:04:25.502Z,35.40
2018-12-06T09:05:25.652Z,36.20
2018-12-06T09:06:25.471Z,34.30
2018-12-06T09:07:25.484Z,36.10
2018-12-06T09:08:26.323Z,33.80
2018-12-06T09:09:25.436Z,33.80
2018-12-06T09:10:25.423Z,34.30
2018-12-06T09:11:25.414Z,33.20
2018-12-06T09:12:27.627Z,35.80
2018-12-06T09:13:25.840Z,34.20
2018-12-06T09:14:25.384Z,35.20
2018-12-06T09:15:25.384Z,33.10
2018-12-06T09:16:25.378Z,35.70
2018-12-06T09:17:26.250Z,34.60
2018-12-06T09:18:25.356Z,32.60
2018-12-06T09:19:25.334Z,32.30
2018-12-06T09:20:25.313Z,31.80
2018-12-06T09:21:25.301Z,32.90
2018-12-06T09:22:25.303Z,32.10
2018-12-06T09:23:25.323Z,30.90
2018-12-06T09:24:25.277Z,30.80
2018-12-06T09:25:25.269Z,28.50
2018-12-06T09:26:25.286Z,29.80
2018-12-06T09:27:25.245Z,30.80
2018-12-06T09:28:25.485Z,31.10
2018-12-06T09:29:25.405Z,28.70
2018-12-06T09:30:25.211Z,28.60
2018-12-06T09:31:25.201Z,28.00
2018-12-06T09:32:25.307Z,27.20
2018-12-06T09:33:25.245Z,26.60
2018-12-06T09:34:25.242Z,28.80
2018-12-06T09:35:25.146Z,29.60
2018-12-06T09:36:25.140Z,28.10
2018-12-06T09:37:25.130Z,26.20
2018-12-06T09:38:25.152Z,26.90
2018-12-06T09:39:25.111Z,26.60
2018-12-06T09:40:25.090Z,27.30
2018-12-06T09:41:25.089Z,27.70
2018-12-06T09:42:25.077Z,25.90
2018-12-06T09:43:25.100Z,26.30
2018-12-06T09:44:25.072Z,24.80
2018-12-06T09:45:25.056Z,24.30
2018-12-06T09:46:25.078Z,24.00
2018-12-06T09:47:25.016Z,26.00
2018-12-06T09:48:25.027Z,24.20
2018-12-06T09:49:25.004Z,27.20
2018-12-06T09:50:24.975Z,28.40
2018-12-06T09:51:25.021Z,26.10
2018-12-06T09:52:24.964Z,29.20
2018-12-06T09:53:24.959Z,23.40
2018-12-06T09:54:24.956Z,27.30
2018-12-06T09:55:24.934Z,28.20
2018-12-06T09:56:24.911Z,25.50
2018-12-06T09:57:24.913Z,25.50
2018-12-06T09:58:24.916Z,25.10
2018-12-06T09:59:24.913Z,27.60
2018-12-06T10:00:24.871Z,26.50
2018-12-06T10:01:24.882Z,25.80
2018-12-06T10:02:24.849Z,24.40
2018-12-06T10:03:24.859Z,24.60
2018-12-06T10:04:24.847Z,24.40
2018-12-06T10:05:24.824Z,25.50
2018-12-06T10:06:24.809Z,26.20
2018-12-06T10:07:24.795Z,27.10
2018-12-06T10:08:24.785Z,23.40
2018-12-06T10:09:24.817Z,23.90
2018-12-06T10:10:24.765Z,25.70
2018-12-06T10:11:24.804Z,24.30
2018-12-06T10:12:24.737Z,24.30
2018-12-06T10:13:24.846Z,25.50
2018-12-06T10:14:24.750Z,23.80
2018-12-06T10:15:24.792Z,26.70
2018-12-06T10:17:33.911Z,21.00
2018-12-06T10:18:34.888Z,22.50
2018-12-06T10:19:35.216Z,24.00
2018-12-06T10:20:34.940Z,23.50
2018-12-06T10:21:34.865Z,24.60
2018-12-06T10:22:34.844Z,23.50
2018-12-06T10:23:34.849Z,27.90
2018-12-06T10:24:34.829Z,23.50
2018-12-06T10:25:34.828Z,25.80
2018-12-06T10:26:34.804Z,22.40
2018-12-06T10:27:34.909Z,21.40
2018-12-06T10:28:34.778Z,23.70
2018-12-06T10:29:34.771Z,22.40
2018-12-06T10:30:34.773Z,23.60
2018-12-06T10:31:34.737Z,21.90
2018-12-06T10:32:34.748Z,23.40
2018-12-06T10:33:34.724Z,23.70
2018-12-06T10:34:34.731Z,23.90
2018-12-06T10:35:34.738Z,22.20
2018-12-06T10:36:34.696Z,22.90
2018-12-06T10:37:34.711Z,21.00
2018-12-06T10:38:34.663Z,20.90
2018-12-06T10:39:34.667Z,24.90
2018-12-06T10:40:34.662Z,23.00
2018-12-06T10:41:34.638Z,21.00
2018-12-06T10:42:34.620Z,19.50
2018-12-06T10:43:34.757Z,20.50
2018-12-06T10:44:34.595Z,20.60
2018-12-06T10:45:34.618Z,19.40
2018-12-06T10:46:34.577Z,19.00
2018-12-06T10:47:34.571Z,21.50
2018-12-06T10:48:34.560Z,18.80
2018-12-06T10:49:34.535Z,18.90
2018-12-06T10:50:34.556Z,19.00
2018-12-06T10:51:34.548Z,17.70
2018-12-06T10:52:34.502Z,17.40
2018-12-06T10:53:34.491Z,19.10
2018-12-06T10:54:34.497Z,19.00
2018-12-06T10:55:34.495Z,18.80
2018-12-06T10:56:34.468Z,18.90
2018-12-06T10:57:34.445Z,19.50
2018-12-06T10:58:34.439Z,19.10
2018-12-06T10:59:34.438Z,21.20
2018-12-06T11:00:34.441Z,21.00
2018-12-06T11:01:34.417Z,22.70
2018-12-06T11:02:34.421Z,21.80
2018-12-06T11:03:34.408Z,21.70
2018-12-06T11:04:34.375Z,21.90
2018-12-06T11:05:34.389Z,24.40
2018-12-06T11:06:34.353Z,24.80
2018-12-06T11:07:34.348Z,27.10
2018-12-06T11:08:34.357Z,27.90
2018-12-06T11:09:34.349Z,28.20
2018-12-06T11:10:34.320Z,31.50
2018-12-06T11:11:34.316Z,27.90
2018-12-06T11:12:34.310Z,30.40
2018-12-06T11:13:34.279Z,31.00
2018-12-06T11:14:34.261Z,31.40
2018-12-06T11:15:35.190Z,29.90
2018-12-06T11:16:34.258Z,32.10
2018-12-06T11:17:35.509Z,33.70
2018-12-06T11:18:34.232Z,33.10
2018-12-06T11:19:34.279Z,34.20
2018-12-06T11:20:34.207Z,33.90
2018-12-06T11:21:34.221Z,37.20
2018-12-06T11:22:34.183Z,37.50
2018-12-06T11:23:34.171Z,34.50
2018-12-06T11:24:34.177Z,35.50
2018-12-06T11:25:34.174Z,37.10
2018-12-06T11:26:34.156Z,37.10
2018-12-06T11:27:34.170Z,33.90
2018-12-06T11:28:34.170Z,36.20
2018-12-06T11:29:34.102Z,35.00
2018-12-06T11:30:34.100Z,32.70
2018-12-06T11:31:34.362Z,37.20
2018-12-06T11:32:34.074Z,35.00
2018-12-06T11:33:34.056Z,38.20
2018-12-06T11:34:34.677Z,34.00
2018-12-06T11:35:34.136Z,39.90
2018-12-06T11:36:34.035Z,33.80
2018-12-06T11:37:34.009Z,37.90
2018-12-06T11:38:34.020Z,38.00
2018-12-06T11:39:34.028Z,38.10
2018-12-06T11:40:33.975Z,35.00
2018-12-06T11:41:33.976Z,39.50
2018-12-06T11:42:33.959Z,40.80
2018-12-06T11:43:33.950Z,43.00
2018-12-06T11:44:33.945Z,45.60
2018-12-06T11:45:33.936Z,42.80
2018-12-06T11:46:33.915Z,43.90
2018-12-06T11:47:33.967Z,44.90
2018-12-06T11:48:33.888Z,45.50
2018-12-06T11:49:33.876Z,44.90
2018-12-06T11:50:33.861Z,50.80
2018-12-06T11:51:33.867Z,44.20
2018-12-06T11:52:34.821Z,47.70
2018-12-06T11:53:33.834Z,47.40
2018-12-06T11:54:33.838Z,48.20
2018-12-06T11:55:33.976Z,45.60
2018-12-06T11:56:33.805Z,45.60
2018-12-06T11:57:33.785Z,46.50
2018-12-06T11:58:33.821Z,48.20
2018-12-06T11:59:33.791Z,45.90
2018-12-06T12:00:33.773Z,48.60
2018-12-06T12:01:33.754Z,43.10
2018-12-06T12:02:33.758Z,45.20
2018-12-06T12:03:33.738Z,42.10
2018-12-06T12:04:33.725Z,44.70
2018-12-06T12:05:33.711Z,47.30
2018-12-06T12:06:33.708Z,42.60
2018-12-06T12:07:33.716Z,44.90
2018-12-06T12:08:33.695Z,46.50
2018-12-06T12:09:33.663Z,45.50
2018-12-06T12:10:33.653Z,43.90
2018-12-06T12:11:33.638Z,41.40
2018-12-06T12:12:33.632Z,41.70
2018-12-06T12:13:33.648Z,45.30
2018-12-06T12:14:33.633Z,41.50
2018-12-06T12:15:33.595Z,42.70
2018-12-06T12:16:33.591Z,42.80
2018-12-06T12:18:42.814Z,40.70
2018-12-06T12:19:43.763Z,47.00
2018-12-06T12:20:43.750Z,45.80
2018-12-06T12:21:43.729Z,52.30
2018-12-06T12:22:43.725Z,49.90
2018-12-06T12:23:43.744Z,55.70
2018-12-06T12:24:43.700Z,55.40
2018-12-06T12:25:43.687Z,53.90
2018-12-06T12:26:43.682Z,52.50
2018-12-06T12:27:43.668Z,54.40
2018-12-06T12:28:43.669Z,55.50
2018-12-06T12:29:43.653Z,53.80
2018-12-06T12:30:43.625Z,54.80
2018-12-06T12:31:43.726Z,51.50
2018-12-06T12:32:43.601Z,54.60
2018-12-06T12:33:43.617Z,52.50
2018-12-06T12:34:43.596Z,52.20
2018-12-06T12:35:43.580Z,55.30
2018-12-06T12:36:43.594Z,50.90
2018-12-06T12:37:43.580Z,59.00
2018-12-06T12:38:43.571Z,54.10
2018-12-06T12:39:43.533Z,54.40
2018-12-06T12:40:43.524Z,56.20
2018-12-06T12:41:43.515Z,55.20
2018-12-06T12:42:43.506Z,57.70
2018-12-06T12:43:43.527Z,57.90
2018-12-06T12:44:43.487Z,51.80
2018-12-06T12:45:43.473Z,56.70
2018-12-06T12:46:43.459Z,54.60
2018-12-06T12:47:43.449Z,57.60
2018-12-06T12:48:43.465Z,57.00
2018-12-06T12:49:43.421Z,54.70
2018-12-06T12:50:43.419Z,62.10
2018-12-06T12:51:43.400Z,61.00
2018-12-06T12:52:43.408Z,65.30
2018-12-06T12:53:43.407Z,60.60
2018-12-06T12:54:43.370Z,55.80
2018-12-06T12:55:43.374Z,60.40
2018-12-06T12:56:43.357Z,58.10
2018-12-06T12:57:43.334Z,60.40
2018-12-06T12:58:43.353Z,58.70
2018-12-06T12:59:43.336Z,60.00
2018-12-06T13:00:43.330Z,56.80